createdAt,value
2019-05-07T00:00:34.914Z,8.77
2019-05-07T00:03:03.452Z,8.60
2019-05-07T00:05:33.199Z,8.63
2019-05-07T00:08:03.024Z,8.52
2019-05-07T00:10:33.193Z,8.48
2019-05-07T00:13:02.349Z,8.61
2019-05-07T00:15:32.784Z,8.47
2019-05-07T00:18:03.253Z,8.44
2019-05-07T00:20:32.699Z,8.58
2019-05-07T00:23:02.959Z,8.55
2019-05-07T00:25:32.797Z,8.61
2019-05-07T00:28:02.749Z,8.70
2019-05-07T00:30:33.216Z,8.35
2019-05-07T00:33:02.781Z,8.33
2019-05-07T00:35:38.966Z,8.37
2019-05-07T00:38:09.021Z,8.32
2019-05-07T00:40:55.355Z,8.36
2019-05-07T00:43:25.420Z,8.30
2019-05-07T00:45:56.944Z,8.25
2019-05-07T00:48:25.634Z,8.36
2019-05-07T00:50:55.705Z,8.26
2019-05-07T00:53:24.206Z,8.26
2019-05-07T00:55:52.830Z,8.30
2019-05-07T00:58:26.306Z,8.23
2019-05-07T01:00:53.168Z,8.18
2019-05-07T01:03:22.377Z,8.18
2019-05-07T01:05:52.758Z,8.22
2019-05-07T01:08:22.553Z,8.27
2019-05-07T01:10:52.892Z,8.36
2019-05-07T01:13:23.340Z,8.25
2019-05-07T01:15:53.197Z,8.31
2019-05-07T01:18:23.344Z,8.18
2019-05-07T01:20:53.253Z,8.17
2019-05-07T01:23:22.907Z,8.21
2019-05-07T01:25:52.610Z,8.20
2019-05-07T01:28:22.326Z,8.14
2019-05-07T01:30:52.825Z,7.98
2019-05-07T01:33:33.216Z,7.96
2019-05-07T01:36:03.434Z,7.98
2019-05-07T01:38:33.134Z,7.93
2019-05-07T01:41:02.887Z,7.98
2019-05-07T01:43:32.211Z,7.98
2019-05-07T01:46:02.991Z,7.76
2019-05-07T01:48:32.330Z,7.70
2019-05-07T01:51:03.223Z,7.80
2019-05-07T01:53:32.381Z,7.90
2019-05-07T01:56:03.169Z,7.80
2019-05-07T01:58:33.056Z,7.76
2019-05-07T02:01:02.759Z,7.89
2019-05-07T02:03:42.050Z,7.96
2019-05-07T02:06:27.322Z,7.85
2019-05-07T02:09:02.245Z,7.95
2019-05-07T02:11:32.739Z,8.05
2019-05-07T02:14:02.056Z,7.85
2019-05-07T02:16:32.520Z,7.86
2019-05-07T02:19:02.158Z,7.91
2019-05-07T02:21:32.789Z,7.87
2019-05-07T02:24:03.190Z,7.99
2019-05-07T02:26:32.153Z,7.81
2019-05-07T02:29:02.757Z,7.76
2019-05-07T02:31:33.799Z,7.75
2019-05-07T02:34:02.840Z,7.84
2019-05-07T02:36:34.066Z,7.79
2019-05-07T02:39:04.287Z,7.72
2019-05-07T02:41:34.419Z,7.79
2019-05-07T02:44:04.077Z,7.71
2019-05-07T02:46:52.722Z,7.47
2019-05-07T02:49:40.131Z,7.54
2019-05-07T02:52:13.622Z,7.50
2019-05-07T02:54:55.800Z,7.46
2019-05-07T02:57:24.411Z,7.50
2019-05-07T02:59:54.448Z,7.71
2019-05-07T03:02:24.055Z,7.59
2019-05-07T03:04:53.347Z,7.60
2019-05-07T03:07:24.107Z,7.69
2019-05-07T03:09:53.928Z,7.65
2019-05-07T03:12:23.703Z,7.56
2019-05-07T03:14:53.833Z,7.55
2019-05-07T03:17:24.615Z,7.50
2019-05-07T03:19:54.135Z,7.54
2019-05-07T03:22:23.298Z,7.38
2019-05-07T03:24:53.609Z,7.37
2019-05-07T03:27:23.453Z,7.27
2019-05-07T03:29:53.879Z,7.29
2019-05-07T03:32:38.358Z,7.31
2019-05-07T03:35:15.660Z,7.32
2019-05-07T03:37:43.433Z,7.21
2019-05-07T03:40:14.234Z,7.28
2019-05-07T03:42:43.987Z,7.33
2019-05-07T03:45:33.292Z,7.39
2019-05-07T03:48:13.591Z,7.32
2019-05-07T03:50:43.105Z,7.36
2019-05-07T03:53:14.273Z,7.20
2019-05-07T03:55:44.559Z,7.10
2019-05-07T03:58:14.569Z,7.10
2019-05-07T04:00:44.320Z,7.00
2019-05-07T04:03:13.447Z,6.93
2019-05-07T04:05:43.440Z,6.93
2019-05-07T04:08:13.228Z,7.02
2019-05-07T04:10:44.368Z,7.08
2019-05-07T04:13:13.320Z,7.13
2019-05-07T04:15:44.081Z,7.20
2019-05-07T04:18:13.286Z,7.20
2019-05-07T04:20:43.532Z,7.22
2019-05-07T04:23:13.804Z,6.96
2019-05-07T04:25:44.278Z,7.16
2019-05-07T04:28:33.517Z,7.18
2019-05-07T04:31:02.911Z,7.19
2019-05-07T04:33:33.640Z,7.32
2019-05-07T04:36:06.528Z,7.24
2019-05-07T04:38:34.974Z,7.21
2019-05-07T04:41:04.002Z,7.34
2019-05-07T04:43:33.683Z,7.41
2019-05-07T04:46:03.181Z,7.52
2019-05-07T04:48:34.128Z,7.52
2019-05-07T04:51:03.930Z,7.60
2019-05-07T04:53:32.949Z,7.72
2019-05-07T04:56:03.347Z,7.78
2019-05-07T04:58:33.839Z,7.76
2019-05-07T05:01:03.417Z,7.85
2019-05-07T05:03:34.598Z,7.82
2019-05-07T05:06:02.757Z,7.77
2019-05-07T05:08:32.532Z,7.89
2019-05-07T05:11:03.439Z,7.84
2019-05-07T05:13:32.997Z,7.87
2019-05-07T05:16:03.410Z,7.88
2019-05-07T05:18:32.930Z,7.87
2019-05-07T05:21:12.229Z,7.90
2019-05-07T05:23:48.135Z,8.13
2019-05-07T05:26:16.715Z,8.11
2019-05-07T05:28:45.138Z,8.35
2019-05-07T05:31:13.564Z,8.34
2019-05-07T05:33:42.174Z,8.35
2019-05-07T05:36:12.704Z,8.45
2019-05-07T05:38:42.388Z,8.40
2019-05-07T05:41:12.454Z,8.38
2019-05-07T05:43:54.382Z,8.40
2019-05-07T05:46:24.501Z,8.48
2019-05-07T05:48:52.926Z,8.69
2019-05-07T05:51:26.168Z,8.74
2019-05-07T05:54:02.203Z,8.62
2019-05-07T05:56:38.186Z,8.53
2019-05-07T05:59:08.378Z,8.62
2019-05-07T06:01:56.725Z,8.81
2019-05-07T06:04:29.955Z,8.85
2019-05-07T06:07:11.124Z,9.10
2019-05-07T06:09:37.812Z,8.71
2019-05-07T06:12:07.950Z,9.01
2019-05-07T06:14:38.194Z,8.75
2019-05-07T06:17:14.224Z,9.10
2019-05-07T06:19:59.423Z,9.00
2019-05-07T06:22:33.053Z,8.90
2019-05-07T06:25:03.273Z,8.78
2019-05-07T06:27:32.502Z,8.95
2019-05-07T06:30:04.813Z,8.77
2019-05-07T06:32:32.039Z,8.83
2019-05-07T06:35:02.955Z,8.85
2019-05-07T06:37:32.141Z,8.91
2019-05-07T06:40:02.697Z,8.93
2019-05-07T06:42:42.783Z,8.84
2019-05-07T06:45:19.510Z,8.93
2019-05-07T06:47:47.970Z,9.09
2019-05-07T06:50:16.469Z,9.23
2019-05-07T06:52:44.897Z,9.26
2019-05-07T06:55:13.918Z,9.34
2019-05-07T06:57:42.724Z,9.61
2019-05-07T07:00:25.341Z,9.89
2019-05-07T07:02:55.863Z,9.79
2019-05-07T07:05:35.407Z,9.97
2019-05-07T07:08:12.473Z,10.46
2019-05-07T07:10:58.650Z,10.17
2019-05-07T07:13:28.067Z,10.21
2019-05-07T07:15:56.498Z,10.19
2019-05-07T07:18:25.687Z,10.43
2019-05-07T07:20:54.209Z,10.57
2019-05-07T07:23:22.801Z,10.28
2019-05-07T07:25:52.239Z,10.52
2019-05-07T07:28:21.936Z,10.44
2019-05-07T07:30:52.694Z,10.44
2019-05-07T07:33:22.813Z,10.60
2019-05-07T07:35:52.089Z,10.55
2019-05-07T07:38:32.956Z,10.66
2019-05-07T07:41:05.474Z,10.65
2019-05-07T07:43:35.733Z,10.93
2019-05-07T07:46:04.364Z,11.09
2019-05-07T07:48:32.794Z,11.17
2019-05-07T07:51:03.223Z,11.27
2019-05-07T07:53:35.152Z,11.66
2019-05-07T07:56:19.394Z,11.47
2019-05-07T07:58:49.601Z,11.40
2019-05-07T08:01:19.738Z,11.67
2019-05-07T08:03:48.238Z,11.78
2019-05-07T08:06:16.687Z,12.43
2019-05-07T08:08:45.252Z,11.95
2019-05-07T08:11:13.816Z,12.28
2019-05-07T08:13:42.737Z,12.34
2019-05-07T08:16:12.956Z,11.82
2019-05-07T08:18:43.586Z,12.44
2019-05-07T08:21:12.070Z,12.57
2019-05-07T08:23:42.409Z,13.32
2019-05-07T08:26:12.686Z,13.51
2019-05-07T08:28:41.929Z,13.61
2019-05-07T08:31:28.262Z,13.33
2019-05-07T08:34:07.148Z,13.27
2019-05-07T08:36:35.581Z,12.70
2019-05-07T08:39:05.642Z,13.43
2019-05-07T08:41:34.466Z,12.78
2019-05-07T08:44:22.328Z,12.71
2019-05-07T08:47:08.480Z,13.00
2019-05-07T08:49:40.119Z,12.79
2019-05-07T08:52:08.909Z,12.74
2019-05-07T08:54:37.432Z,13.88
2019-05-07T08:57:06.003Z,14.10
2019-05-07T08:59:35.281Z,13.59
2019-05-07T09:02:04.184Z,13.28
2019-05-07T09:04:33.059Z,13.02
2019-05-07T09:07:02.746Z,13.75
2019-05-07T09:09:32.377Z,13.91
2019-05-07T09:12:03.025Z,13.42
2019-05-07T09:14:32.229Z,13.89
2019-05-07T09:17:02.464Z,13.94
2019-05-07T09:19:32.397Z,13.97
2019-05-07T09:22:02.170Z,13.84
2019-05-07T09:24:33.254Z,13.79
2019-05-07T09:27:08.703Z,14.13
2019-05-07T09:29:42.646Z,13.82
2019-05-07T09:32:22.752Z,14.02
2019-05-07T09:34:53.144Z,13.91
2019-05-07T09:37:29.081Z,13.82
2019-05-07T09:39:57.777Z,14.14
2019-05-07T09:42:26.278Z,14.29
2019-05-07T09:44:54.802Z,14.39
2019-05-07T09:47:23.398Z,14.12
2019-05-07T09:50:03.954Z,13.80
2019-05-07T09:52:22.811Z,14.48
2019-05-07T09:54:52.243Z,13.65
2019-05-07T09:57:30.066Z,14.01
2019-05-07T09:59:53.029Z,13.90
2019-05-07T10:02:22.714Z,14.10
2019-05-07T10:04:52.603Z,13.92
2019-05-07T10:07:22.339Z,13.81
2019-05-07T10:09:52.329Z,14.11
2019-05-07T10:12:28.889Z,14.26
2019-05-07T10:14:57.587Z,14.52
2019-05-07T10:17:45.827Z,14.29
2019-05-07T10:20:21.641Z,14.17
2019-05-07T10:22:47.215Z,14.57
2019-05-07T10:25:16.380Z,14.55
2019-05-07T10:27:45.175Z,14.38
2019-05-07T10:30:13.757Z,14.55
2019-05-07T10:32:42.461Z,14.65
2019-05-07T10:35:12.818Z,14.58
2019-05-07T10:37:42.326Z,14.71
2019-05-07T10:40:12.855Z,14.84
2019-05-07T10:42:43.062Z,15.08
2019-05-07T10:45:25.835Z,14.66
2019-05-07T10:48:11.677Z,14.51
2019-05-07T10:50:42.541Z,14.86
2019-05-07T10:53:12.551Z,14.64
2019-05-07T10:55:42.256Z,14.24
2019-05-07T10:58:11.240Z,14.10
2019-05-07T11:00:41.960Z,14.34
2019-05-07T11:03:12.481Z,14.26
2019-05-07T11:05:41.875Z,14.24
2019-05-07T11:08:10.630Z,14.52
2019-05-07T11:10:41.706Z,14.45
2019-05-07T11:13:09.742Z,14.50
2019-05-07T11:15:38.640Z,14.14
2019-05-07T11:18:12.633Z,14.27
2019-05-07T11:20:49.869Z,14.20
2019-05-07T11:23:11.722Z,14.26
2019-05-07T11:25:42.099Z,14.72
2019-05-07T11:28:12.355Z,14.71
2019-05-07T11:30:42.515Z,14.84
2019-05-07T11:33:12.738Z,14.75
2019-05-07T11:35:42.260Z,14.70
2019-05-07T11:38:18.684Z,14.81
2019-05-07T11:40:42.684Z,15.03
2019-05-07T11:43:32.643Z,14.77
2019-05-07T11:46:03.058Z,15.41
2019-05-07T11:48:35.818Z,15.64
2019-05-07T11:51:07.121Z,15.58
2019-05-07T11:53:37.279Z,16.17
2019-05-07T11:56:05.876Z,15.98
2019-05-07T11:58:34.336Z,15.35
2019-05-07T12:01:12.504Z,15.47
2019-05-07T12:03:42.750Z,15.37
2019-05-07T12:06:12.477Z,16.29
2019-05-07T12:08:45.872Z,16.63
2019-05-07T12:11:11.931Z,16.50
2019-05-07T12:13:42.572Z,16.89
2019-05-07T12:16:13.695Z,15.84
2019-05-07T12:18:42.958Z,15.98
2019-05-07T12:21:18.242Z,16.39
2019-05-07T12:23:42.211Z,15.86
2019-05-07T12:26:12.535Z,15.68
2019-05-07T12:28:41.882Z,15.72
2019-05-07T12:31:24.678Z,15.65
2019-05-07T12:34:02.556Z,15.72
2019-05-07T12:36:32.084Z,16.43
2019-05-07T12:39:02.275Z,16.35
2019-05-07T12:41:33.683Z,15.65
2019-05-07T12:44:04.334Z,15.76
2019-05-07T12:46:33.574Z,16.23
2019-05-07T12:49:03.122Z,16.00
2019-05-07T12:51:37.376Z,15.86
2019-05-07T12:54:08.673Z,15.64
2019-05-07T12:56:37.102Z,15.84
2019-05-07T12:59:05.665Z,16.32
2019-05-07T13:01:35.858Z,16.54
2019-05-07T13:04:08.435Z,16.51
2019-05-07T13:06:38.664Z,16.37
2019-05-07T13:09:07.243Z,16.70
2019-05-07T13:11:35.693Z,16.92
2019-05-07T13:14:04.478Z,16.35
2019-05-07T13:16:32.981Z,16.25
2019-05-07T13:19:01.920Z,16.49
2019-05-07T13:21:33.176Z,16.97
2019-05-07T13:24:02.596Z,16.79
2019-05-07T13:26:32.257Z,16.64
2019-05-07T13:29:02.582Z,16.77
2019-05-07T13:31:32.957Z,16.37
2019-05-07T13:34:03.058Z,17.13
2019-05-07T13:36:33.167Z,16.78
2019-05-07T13:39:06.551Z,16.91
2019-05-07T13:41:39.501Z,17.24
2019-05-07T13:44:12.479Z,17.36
2019-05-07T13:46:44.780Z,17.39
2019-05-07T13:49:12.605Z,17.03
2019-05-07T13:51:41.771Z,17.00
2019-05-07T13:54:12.690Z,16.52
2019-05-07T13:56:41.974Z,16.49
2019-05-07T13:59:13.189Z,16.35
2019-05-07T14:01:49.011Z,16.70
2019-05-07T14:04:17.433Z,16.67
2019-05-07T14:06:46.680Z,16.83
2019-05-07T14:09:17.243Z,16.83
2019-05-07T14:11:45.808Z,16.43
2019-05-07T14:14:14.336Z,16.47
2019-05-07T14:16:45.007Z,16.25
2019-05-07T14:19:13.527Z,15.97
2019-05-07T14:21:42.336Z,15.90
2019-05-07T14:24:12.455Z,15.84
2019-05-07T14:26:42.249Z,15.80
2019-05-07T14:29:11.000Z,16.00
2019-05-07T14:31:39.563Z,16.09
2019-05-07T14:34:25.115Z,15.98
2019-05-07T14:37:01.926Z,15.77
2019-05-07T14:39:33.142Z,15.59
2019-05-07T14:42:05.527Z,15.67
2019-05-07T14:44:49.927Z,15.61
2019-05-07T14:47:22.091Z,15.72
2019-05-07T14:49:52.677Z,15.95
2019-05-07T14:52:30.162Z,15.95
2019-05-07T14:54:50.993Z,15.90
2019-05-07T14:57:19.559Z,15.75
2019-05-07T14:59:49.575Z,15.78
2019-05-07T15:02:18.333Z,15.19
2019-05-07T15:04:46.896Z,15.31
2019-05-07T15:07:15.459Z,15.44
2019-05-07T15:09:44.078Z,15.09
2019-05-07T15:12:14.804Z,15.62
2019-05-07T15:14:43.455Z,15.80
2019-05-07T15:17:23.044Z,15.24
2019-05-07T15:19:52.114Z,15.21
2019-05-07T15:22:25.367Z,15.64
2019-05-07T15:24:53.895Z,15.65
2019-05-07T15:27:23.239Z,15.38
2019-05-07T15:29:52.635Z,15.50
2019-05-07T15:32:21.858Z,15.59
2019-05-07T15:34:52.507Z,15.38
2019-05-07T15:37:20.559Z,15.37
2019-05-07T15:39:49.208Z,15.73
2019-05-07T15:42:17.772Z,15.54
2019-05-07T15:44:46.273Z,15.20
2019-05-07T15:47:18.955Z,14.98
2019-05-07T15:49:47.388Z,14.84
2019-05-07T15:52:22.041Z,14.98
2019-05-07T15:54:52.096Z,15.05
2019-05-07T15:57:25.087Z,14.96
2019-05-07T15:59:55.156Z,14.87
2019-05-07T16:02:34.453Z,15.04
2019-05-07T16:05:05.038Z,14.78
2019-05-07T16:07:33.121Z,14.96
2019-05-07T16:10:02.307Z,15.12
2019-05-07T16:12:32.033Z,15.13
2019-05-07T16:15:02.989Z,15.07
2019-05-07T16:17:32.918Z,14.96
2019-05-07T16:20:03.149Z,14.90
2019-05-07T16:22:33.429Z,14.95
2019-05-07T16:25:06.848Z,14.96
2019-05-07T16:27:33.694Z,14.85
2019-05-07T16:30:02.120Z,14.58
2019-05-07T16:32:32.905Z,14.72
2019-05-07T16:35:02.661Z,14.68
2019-05-07T16:37:32.242Z,14.87
2019-05-07T16:40:01.607Z,14.69
2019-05-07T16:42:32.181Z,14.61
2019-05-07T16:45:02.754Z,14.94
2019-05-07T16:47:31.060Z,14.54
2019-05-07T16:49:59.489Z,14.75
2019-05-07T16:52:27.923Z,14.39
2019-05-07T16:54:56.444Z,14.56
2019-05-07T16:57:42.907Z,14.69
2019-05-07T17:00:16.488Z,14.32
2019-05-07T17:02:49.230Z,14.60
2019-05-07T17:05:17.856Z,14.89
2019-05-07T17:07:52.099Z,14.86
2019-05-07T17:10:22.345Z,14.54
2019-05-07T17:12:52.463Z,14.36
2019-05-07T17:15:22.773Z,14.54
2019-05-07T17:18:02.497Z,14.61
2019-05-07T17:20:32.831Z,14.63
2019-05-07T17:23:02.982Z,14.46
2019-05-07T17:25:36.997Z,14.73
2019-05-07T17:28:08.935Z,14.71
2019-05-07T17:30:38.144Z,14.64
2019-05-07T17:33:07.137Z,14.66
2019-05-07T17:35:35.635Z,14.62
2019-05-07T17:38:08.943Z,14.57
2019-05-07T17:40:34.598Z,14.40
2019-05-07T17:43:03.294Z,14.43
2019-05-07T17:45:32.826Z,14.52
2019-05-07T17:48:03.141Z,14.42
2019-05-07T17:50:49.402Z,14.44
2019-05-07T17:53:17.992Z,14.32
2019-05-07T17:55:46.416Z,14.14
2019-05-07T17:58:14.851Z,14.12
2019-05-07T18:00:46.385Z,13.86
2019-05-07T18:03:22.517Z,13.89
2019-05-07T18:05:51.939Z,13.78
2019-05-07T18:08:21.719Z,13.63
2019-05-07T18:10:50.277Z,13.49
2019-05-07T18:13:18.732Z,13.52
2019-05-07T18:15:47.164Z,13.54
2019-05-07T18:18:15.659Z,13.71
2019-05-07T18:20:44.285Z,13.57
2019-05-07T18:23:16.917Z,13.56
2019-05-07T18:25:43.034Z,13.34
2019-05-07T18:28:12.441Z,13.01
2019-05-07T18:30:41.078Z,13.03
2019-05-07T18:33:13.856Z,12.91
2019-05-07T18:35:43.624Z,12.64
2019-05-07T18:38:12.045Z,12.54
2019-05-07T18:40:42.128Z,12.43
2019-05-07T18:43:12.241Z,12.25
2019-05-07T18:45:40.868Z,12.41
2019-05-07T18:48:09.302Z,12.51
2019-05-07T18:50:37.832Z,12.36
2019-05-07T18:53:06.345Z,12.07
2019-05-07T18:55:34.842Z,12.03
2019-05-07T18:58:03.367Z,11.86
2019-05-07T19:00:36.147Z,11.83
2019-05-07T19:03:04.724Z,11.79
2019-05-07T19:05:33.355Z,11.95
2019-05-07T19:08:07.677Z,11.85
2019-05-07T19:10:32.955Z,11.56
2019-05-07T19:13:01.592Z,11.89
2019-05-07T19:15:32.724Z,11.86
2019-05-07T19:18:02.507Z,11.75
2019-05-07T19:20:32.643Z,11.74
2019-05-07T19:23:02.711Z,11.62
2019-05-07T19:25:32.642Z,11.62
2019-05-07T19:28:02.074Z,11.63
2019-05-07T19:30:32.685Z,11.73
2019-05-07T19:33:00.876Z,11.67
2019-05-07T19:35:29.410Z,11.78
2019-05-07T19:37:57.833Z,11.93
2019-05-07T19:40:26.353Z,12.07
2019-05-07T19:42:55.062Z,11.81
2019-05-07T19:45:24.508Z,11.86
2019-05-07T19:47:53.116Z,11.73
2019-05-07T19:50:23.326Z,11.99
2019-05-07T19:52:52.275Z,11.89
2019-05-07T19:55:22.015Z,11.80
2019-05-07T19:57:52.387Z,11.74
2019-05-07T20:00:22.983Z,11.71
2019-05-07T20:02:53.187Z,11.76
2019-05-07T20:05:21.872Z,11.31
2019-05-07T20:07:55.206Z,11.51
2019-05-07T20:10:28.223Z,11.50
2019-05-07T20:12:56.711Z,11.42
2019-05-07T20:15:25.206Z,11.44
2019-05-07T20:17:53.682Z,11.33
2019-05-07T20:20:22.279Z,11.27
2019-05-07T20:22:51.825Z,11.25
2019-05-07T20:25:22.503Z,11.17
2019-05-07T20:27:52.571Z,11.02
2019-05-07T20:30:22.906Z,10.91
2019-05-07T20:32:52.310Z,10.92
2019-05-07T20:35:20.832Z,11.03
2019-05-07T20:37:49.292Z,11.00
2019-05-07T20:40:17.717Z,11.01
2019-05-07T20:42:46.138Z,10.86
2019-05-07T20:45:14.765Z,10.96
2019-05-07T20:47:43.210Z,10.90
2019-05-07T20:50:12.746Z,10.81
2019-05-07T20:52:41.936Z,10.83
2019-05-07T20:55:28.223Z,10.85
2019-05-07T20:57:46.664Z,10.80
2019-05-07T21:00:18.796Z,10.74
2019-05-07T21:02:48.968Z,10.52
2019-05-07T21:05:17.453Z,10.60
2019-05-07T21:07:45.878Z,10.97
2019-05-07T21:10:14.498Z,10.54
2019-05-07T21:12:42.924Z,10.73
2019-05-07T21:15:12.362Z,10.60
2019-05-07T21:17:42.884Z,10.51
2019-05-07T21:20:12.103Z,10.57
2019-05-07T21:22:42.462Z,10.65
2019-05-07T21:25:12.028Z,10.70
2019-05-07T21:27:43.008Z,10.60
2019-05-07T21:30:12.972Z,10.64
2019-05-07T21:32:42.100Z,10.53
2019-05-07T21:35:12.147Z,10.45
2019-05-07T21:37:41.827Z,10.41
2019-05-07T21:40:13.001Z,10.95
2019-05-07T21:42:42.598Z,11.02
2019-05-07T21:45:11.443Z,11.13
2019-05-07T21:47:39.900Z,10.55
2019-05-07T21:50:08.763Z,10.58
2019-05-07T21:52:39.487Z,10.66
2019-05-07T21:55:28.075Z,10.24
2019-05-07T21:57:58.142Z,10.19
2019-05-07T22:00:34.534Z,10.07
2019-05-07T22:03:04.675Z,10.16
2019-05-07T22:05:33.099Z,10.01
2019-05-07T22:08:01.886Z,10.33
2019-05-07T22:10:30.364Z,10.06
2019-05-07T22:12:58.788Z,10.16
2019-05-07T22:15:27.248Z,10.08
2019-05-07T22:17:55.739Z,10.15
2019-05-07T22:20:24.180Z,10.21
2019-05-07T22:22:52.694Z,10.06
2019-05-07T22:25:22.229Z,10.27
2019-05-07T22:27:52.847Z,10.19
2019-05-07T22:30:23.249Z,10.00
2019-05-07T22:32:59.604Z,9.92
2019-05-07T22:35:35.621Z,10.08
2019-05-07T22:38:04.050Z,10.01
2019-05-07T22:40:32.473Z,9.72
2019-05-07T22:43:02.165Z,9.73
2019-05-07T22:45:32.219Z,9.73
2019-05-07T22:48:02.757Z,9.75
2019-05-07T22:50:33.009Z,9.63
2019-05-07T22:53:01.994Z,9.48
2019-05-07T22:55:32.539Z,9.05
2019-05-07T22:58:08.047Z,9.22
2019-05-07T23:00:38.105Z,9.13
2019-05-07T23:03:06.529Z,8.90
2019-05-07T23:05:35.098Z,9.03
2019-05-07T23:08:03.518Z,8.93
2019-05-07T23:10:33.263Z,8.88
2019-05-07T23:13:02.275Z,8.72
2019-05-07T23:15:32.178Z,8.92
2019-05-07T23:18:04.106Z,8.67
2019-05-07T23:20:32.003Z,8.80
2019-05-07T23:23:00.707Z,8.68
2019-05-07T23:25:29.144Z,8.64
2019-05-07T23:27:57.589Z,8.62
2019-05-07T23:30:26.086Z,8.76
2019-05-07T23:32:54.683Z,8.86
2019-05-07T23:35:23.117Z,9.11
2019-05-07T23:37:52.985Z,8.49
2019-05-07T23:40:25.910Z,8.21
2019-05-07T23:43:02.866Z,8.20
2019-05-07T23:45:31.486Z,8.14
2019-05-07T23:47:59.904Z,8.13
2019-05-07T23:50:28.355Z,7.97
2019-05-07T23:52:56.776Z,7.73
2019-05-07T23:55:25.195Z,7.68
2019-05-07T23:57:53.644Z,7.72
